Time;durP1;ratioP1;P1;durP2;ratioP2;P2;SDS_P1;SDS_P2;PMS_P1;PMS_P2;Temp;Humidity;BMP_temperature;BMP_pressure;BME280_temperature;BME280_humidity;BME280_pressure;Samples;Min_cycle;Max_cycle;Signal;HPM_P1;HPM_P2
2021/09/18 00:01:01;;;;;;;7.05;6.00;;;19.90;77.40;;;;;;10412798;28;20025;-45
2021/09/18 00:06:01;;;;;;;6.93;5.82;;;19.90;77.30;;;;;;10413667;28;20036;-45
2021/09/18 00:11:03;;;;;;;9.40;6.65;;;19.90;77.20;;;;;;10412889;28;20021;-47
2021/09/18 00:16:04;;;;;;;6.95;6.20;;;19.90;77.20;;;;;;10413706;28;20029;-46
2021/09/18 00:21:04;;;;;;;7.38;6.68;;;19.90;77.20;;;;;;10429131;28;20037;-45
2021/09/18 00:26:05;;;;;;;7.03;6.10;;;19.80;77.10;;;;;;10421611;28;20124;-48
2021/09/18 00:31:06;;;;;;;6.90;6.13;;;19.80;77.00;;;;;;10421534;28;20025;-45
2021/09/18 00:36:07;;;;;;;6.63;5.78;;;19.80;76.90;;;;;;10421267;28;20029;-45
2021/09/18 00:41:07;;;;;;;6.97;5.32;;;19.80;76.80;;;;;;10420887;28;20500;-46
2021/09/18 00:46:08;;;;;;;7.20;6.43;;;19.80;76.80;;;;;;10420963;28;20132;-45
2021/09/18 00:51:09;;;;;;;7.10;6.10;;;19.80;76.80;;;;;;10420814;28;20068;-46
2021/09/18 00:56:10;;;;;;;6.50;5.75;;;19.80;76.70;;;;;;10420577;28;20033;-45
2021/09/18 01:01:10;;;;;;;6.15;5.50;;;19.80;76.50;;;;;;10420672;28;20041;-44
2021/09/18 01:06:13;;;;;;;5.88;5.28;;;19.80;76.60;;;;;;10429452;28;20131;-44
2021/09/18 01:11:13;;;;;;;9.52;6.25;;;19.80;76.60;;;;;;10423599;28;20045;-45
2021/09/18 01:16:14;;;;;;;6.45;5.78;;;19.80;76.50;;;;;;10418694;28;20072;-45
2021/09/18 01:21:17;;;;;;;7.03;5.63;;;19.80;76.50;;;;;;10430681;28;20042;-45
2021/09/18 01:26:37;;;;;;;7.55;5.95;;;19.80;76.40;;;;;;10419525;28;20025;-46
2021/09/18 01:31:44;;;;;;;6.25;5.38;;;19.80;76.20;;;;;;10417251;28;20047;-45
2021/09/18 01:36:46;;;;;;;6.50;5.57;;;19.80;76.30;;;;;;10419394;28;20022;-45
2021/09/18 01:41:48;;;;;;;6.03;5.43;;;19.80;76.30;;;;;;10432541;28;20101;-45
2021/09/18 01:46:49;;;;;;;6.00;5.38;;;19.80;76.30;;;;;;10418833;28;20053;-47
2021/09/18 01:51:56;;;;;;;6.38;5.78;;;19.80;76.20;;;;;;10416948;28;20417;-46
2021/09/18 01:56:56;;;;;;;5.70;5.20;;;19.80;76.10;;;;;;10418456;28;20026;-48
2021/09/18 02:01:57;;;;;;;6.32;5.65;;;19.80;75.70;;;;;;10418249;28;20466;-45
2021/09/18 02:06:58;;;;;;;5.78;5.18;;;19.80;76.00;;;;;;10418141;28;20072;-47
2021/09/18 02:11:58;;;;;;;6.78;5.57;;;19.70;75.80;;;;;;10417467;28;20480;-45
2021/09/18 02:16:59;;;;;;;6.20;5.32;;;19.80;75.80;;;;;;10420134;28;20079;-48
2021/09/18 02:22:00;;;;;;;5.68;4.95;;;19.70;75.70;;;;;;10433059;28;20041;-45
2021/09/18 02:27:00;;;;;;;5.32;4.82;;;19.70;75.50;;;;;;10417261;28;20068;-49
2021/09/18 02:32:01;;;;;;;6.57;5.90;;;19.70;75.60;;;;;;10416683;28;20147;-44
2021/09/18 02:37:02;;;;;;;6.75;5.38;;;19.70;75.40;;;;;;10416584;28;20025;-48
2021/09/18 02:42:03;;;;;;;7.80;5.30;;;19.70;75.00;;;;;;10416547;28;20037;-45
2021/09/18 02:47:04;;;;;;;5.82;5.20;;;19.70;75.00;;;;;;10415266;28;20049;-47
2021/09/18 02:52:05;;;;;;;6.88;5.63;;;19.70;74.90;;;;;;10416129;28;20063;-45
2021/09/18 02:57:06;;;;;;;5.00;4.50;;;19.70;75.30;;;;;;10414460;28;20033;-50
2021/09/18 03:02:06;;;;;;;6.90;5.53;;;19.70;74.90;;;;;;10415964;28;20108;-45
2021/09/18 03:07:07;;;;;;;5.68;5.05;;;19.70;74.90;;;;;;10415754;28;20154;-49
2021/09/18 03:12:08;;;;;;;6.07;4.90;;;19.70;75.10;;;;;;10415466;28;20470;-45
2021/09/18 03:17:09;;;;;;;5.45;4.93;;;19.70;74.70;;;;;;10427372;28;20525;-45
2021/09/18 03:22:09;;;;;;;5.93;5.13;;;19.70;74.60;;;;;;10427254;28;20031;-45
2021/09/18 03:27:12;;;;;;;5.57;4.97;;;19.70;74.90;;;;;;10414534;28;20033;-46
2021/09/18 03:32:13;;;;;;;5.85;5.25;;;19.60;74.40;;;;;;10414088;28;20474;-45
2021/09/18 03:37:14;;;;;;;5.18;4.78;;;19.70;74.80;;;;;;10414892;28;20256;-45
2021/09/18 03:42:15;;;;;;;5.38;4.75;;;19.60;74.20;;;;;;10414468;28;20037;-45
2021/09/18 03:47:16;;;;;;;5.90;5.30;;;19.70;74.60;;;;;;10413039;28;20041;-45
2021/09/18 03:52:17;;;;;;;5.85;4.70;;;19.70;74.20;;;;;;10402712;28;20482;-46
2021/09/18 03:57:18;;;;;;;4.93;4.38;;;19.60;74.60;;;;;;10424222;28;20025;-45
2021/09/18 04:02:19;;;;;;;5.35;4.85;;;19.60;74.40;;;;;;10427889;28;20485;-45
2021/09/18 04:07:19;;;;;;;4.93;4.32;;;19.70;74.20;;;;;;10441040;28;20044;-45
2021/09/18 04:12:20;;;;;;;4.93;4.10;;;19.60;74.20;;;;;;10420238;28;20441;-44
2021/09/18 04:17:21;;;;;;;5.50;5.00;;;19.60;74.30;;;;;;10416627;28;20025;-46
2021/09/18 04:22:21;;;;;;;5.65;4.88;;;19.60;74.20;;;;;;10434288;28;20116;-45
2021/09/18 04:27:22;;;;;;;5.13;4.55;;;19.60;73.90;;;;;;10424667;28;20116;-45
2021/09/18 04:32:23;;;;;;;5.82;5.28;;;19.60;74.20;;;;;;10432034;28;20039;-45
2021/09/18 04:37:24;;;;;;;5.00;4.50;;;19.60;73.50;;;;;;10422636;28;20041;-45
2021/09/18 04:42:24;;;;;;;5.22;4.30;;;19.60;74.00;;;;;;10423206;28;20493;-44
2021/09/18 04:47:25;;;;;;;4.30;3.83;;;19.60;74.00;;;;;;10426818;28;20088;-45
2021/09/18 04:52:26;;;;;;;4.95;4.47;;;19.60;74.20;;;;;;10424004;28;20069;-47
2021/09/18 04:57:26;;;;;;;4.93;4.15;;;19.60;74.10;;;;;;10424913;28;20735;-46
2021/09/18 05:02:27;;;;;;;4.75;4.30;;;19.60;73.70;;;;;;10431134;28;20033;-44
2021/09/18 05:07:28;;;;;;;4.40;3.75;;;19.60;73.20;;;;;;10420252;28;20442;-44
2021/09/18 05:12:28;;;;;;;4.97;4.13;;;19.60;73.80;;;;;;10407036;28;20041;-50
2021/09/18 05:17:29;;;;;;;8.57;4.43;;;19.60;74.20;;;;;;10419532;28;20461;-45
2021/09/18 05:22:30;;;;;;;8.10;4.60;;;19.50;73.50;;;;;;10431783;28;20067;-63
2021/09/18 05:27:30;;;;;;;9.60;4.32;;;20.10;73.30;;;;;;10419363;28;20432;-61
2021/09/18 05:32:31;;;;;;;5.35;3.40;;;20.40;72.30;;;;;;10418022;28;20095;-60
2021/09/18 05:37:32;;;;;;;7.05;5.05;;;20.50;72.00;;;;;;10416858;28;20045;-60
2021/09/18 05:42:32;;;;;;;8.50;4.18;;;20.50;71.90;;;;;;10414065;28;20037;-61
2021/09/18 05:47:33;;;;;;;7.03;4.88;;;20.50;71.70;;;;;;10416719;28;20045;-60
2021/09/18 05:52:34;;;;;;;9.20;4.38;;;20.60;71.20;;;;;;10415218;28;20513;-61
2021/09/18 05:57:35;;;;;;;13.90;4.25;;;20.60;71.10;;;;;;10418068;28;20029;-58
2021/09/18 06:02:35;;;;;;;15.15;4.30;;;20.70;71.10;;;;;;10416532;28;20025;-62
2021/09/18 06:07:37;;;;;;;12.07;4.55;;;20.60;71.30;;;;;;10418227;28;20056;-64
2021/09/18 06:12:37;;;;;;;7.72;3.83;;;20.70;70.90;;;;;;10412709;28;20026;-68
2021/09/18 06:17:38;;;;;;;11.77;4.97;;;20.70;71.00;;;;;;10410212;28;20017;-65
2021/09/18 06:22:39;;;;;;;12.70;4.97;;;20.70;70.80;;;;;;10416071;28;20409;-63
2021/09/18 06:27:40;;;;;;;11.57;4.18;;;20.60;70.60;;;;;;10414850;28;20087;-65
2021/09/18 06:32:41;;;;;;;7.97;4.35;;;20.60;70.40;;;;;;10414487;28;20087;-64
2021/09/18 06:37:47;;;;;;;9.82;4.30;;;20.60;70.40;;;;;;10413454;28;20026;-64
2021/09/18 06:42:48;;;;;;;10.70;4.40;;;20.60;70.50;;;;;;10401994;28;20033;-64
2021/09/18 06:47:49;;;;;;;8.43;4.28;;;20.60;70.30;;;;;;10413071;28;20053;-65
2021/09/18 06:52:49;;;;;;;12.10;4.07;;;20.60;70.40;;;;;;10414033;28;20029;-64
2021/09/18 06:57:50;;;;;;;6.70;4.07;;;20.60;70.40;;;;;;10414434;28;20036;-64
2021/09/18 07:02:51;;;;;;;5.05;3.88;;;20.60;70.30;;;;;;10413602;28;20098;-65
2021/09/18 07:07:51;;;;;;;5.95;4.30;;;20.60;70.50;;;;;;10414082;28;20041;-65
2021/09/18 07:12:52;;;;;;;6.15;3.80;;;20.60;70.50;;;;;;10414226;28;20120;-65
2021/09/18 07:17:53;;;;;;;7.53;3.97;;;20.60;70.50;;;;;;10397343;28;20033;-65
2021/09/18 07:22:54;;;;;;;6.53;3.85;;;20.60;70.40;;;;;;10423797;28;20371;-64
2021/09/18 07:27:55;;;;;;;4.30;3.55;;;20.60;70.50;;;;;;10409231;28;20072;-66
2021/09/18 07:32:56;;;;;;;8.43;4.18;;;20.60;70.30;;;;;;10393928;28;20629;-62
2021/09/18 07:37:58;;;;;;;6.30;3.78;;;20.60;71.40;;;;;;10407417;28;20051;-64
2021/09/18 07:42:59;;;;;;;6.07;3.83;;;20.60;71.00;;;;;;10413986;28;20140;-64
2021/09/18 07:48:00;;;;;;;10.48;4.20;;;20.70;71.50;;;;;;10394176;28;20069;-59
2021/09/18 07:53:01;;;;;;;13.82;4.80;;;20.70;71.60;;;;;;10412317;28;20060;-60
2021/09/18 07:58:02;;;;;;;14.77;4.72;;;20.70;71.60;;;;;;10412823;28;20116;-61
2021/09/18 08:03:03;;;;;;;14.02;5.65;;;20.70;71.40;;;;;;10412926;28;20489;-59
2021/09/18 08:08:04;;;;;;;8.45;3.92;;;20.70;71.60;;;;;;10412001;28;20038;-61
2021/09/18 08:13:05;;;;;;;16.05;5.80;;;20.70;71.40;;;;;;10413651;28;20036;-62
2021/09/18 08:18:06;;;;;;;13.77;6.07;;;20.80;71.70;;;;;;10411334;28;20450;-61
2021/09/18 08:23:06;;;;;;;12.30;5.38;;;20.70;71.40;;;;;;10411738;28;20030;-61
2021/09/18 08:28:07;;;;;;;12.32;4.93;;;20.70;71.40;;;;;;10409193;28;20051;-60
2021/09/18 08:33:08;;;;;;;11.80;4.85;;;20.70;71.40;;;;;;10410620;28;20080;-61
2021/09/18 08:38:08;;;;;;;9.93;5.00;;;20.70;71.40;;;;;;10412285;28;20037;-60
2021/09/18 08:43:10;;;;;;;21.33;5.50;;;20.70;71.40;;;;;;10414450;28;20744;-60
2021/09/18 08:48:12;;;;;;;8.05;4.47;;;20.70;71.40;;;;;;10419210;28;20465;-61
2021/09/18 08:53:12;;;;;;;13.70;4.88;;;20.70;71.60;;;;;;10420344;28;20041;-60
2021/09/18 08:58:13;;;;;;;12.02;4.45;;;20.70;71.50;;;;;;10420171;28;20492;-61
2021/09/18 09:03:28;;;;;;;7.18;4.78;;;20.70;71.40;;;;;;10420238;28;20065;-60
2021/09/18 09:08:29;;;;;;;6.25;4.45;;;20.70;70.90;;;;;;10418606;28;20038;-60
2021/09/18 09:13:30;;;;;;;10.27;4.80;;;20.70;71.10;;;;;;10419791;28;20087;-60
2021/09/18 09:18:40;;;;;;;7.63;4.55;;;20.70;71.00;;;;;;10421968;28;20036;-60
2021/09/18 09:23:42;;;;;;;10.98;4.65;;;20.70;71.10;;;;;;10426779;28;20091;-60
2021/09/18 09:28:45;;;;;;;9.35;5.22;;;20.80;73.00;;;;;;10418284;28;20040;-61
2021/09/18 09:34:15;;;;;;;7.63;5.50;;;20.80;76.60;;;;;;10418883;28;20498;-60
2021/09/18 09:39:22;;;;;;;7.32;5.63;;;20.80;76.20;;;;;;10418660;28;20037;-60
2021/09/18 09:44:32;;;;;;;11.20;5.55;;;20.90;72.80;;;;;;10416902;28;20045;-60
2021/09/18 09:49:57;;;;;;;6.70;4.32;;;20.80;72.40;;;;;;10416686;28;20049;-60
2021/09/18 09:55:14;;;;;;;7.80;5.05;;;20.90;72.70;;;;;;10416290;28;20034;-60
2021/09/18 10:00:16;;;;;;;6.20;4.47;;;20.90;72.80;;;;;;10416301;28;20037;-60
2021/09/18 10:05:17;;;;;;;5.90;4.88;;;20.80;72.80;;;;;;10416493;28;20033;-60
2021/09/18 10:10:18;;;;;;;6.32;4.28;;;20.90;72.80;;;;;;10416025;28;20505;-61
2021/09/18 10:15:19;;;;;;;7.38;4.70;;;20.90;72.80;;;;;;10416243;28;20041;-61
2021/09/18 10:25:32;;;;;;;6.90;4.60;;;21.00;72.90;;;;;;10416043;28;20045;-61
2021/09/18 10:30:59;;;;;;;4.88;4.38;;;21.00;72.90;;;;;;10415714;28;20489;-60
2021/09/18 10:36:09;;;;;;;6.18;4.55;;;21.00;73.00;;;;;;10416052;28;20116;-60
2021/09/18 10:41:24;;;;;;;5.93;5.13;;;21.00;72.90;;;;;;10416339;28;20075;-60
2021/09/18 10:46:53;;;;;;;6.53;4.63;;;21.00;72.90;;;;;;10414560;28;20049;-60
2021/09/18 10:51:54;;;;;;;6.53;3.97;;;21.10;73.10;;;;;;10415781;28;20038;-61
2021/09/18 10:56:59;;;;;;;7.30;4.63;;;21.10;73.10;;;;;;10414486;28;20478;-60
2021/09/18 11:02:32;;;;;;;5.75;4.78;;;21.10;73.10;;;;;;10415261;28;20040;-61
2021/09/18 11:07:49;;;;;;;4.43;3.83;;;21.10;73.10;;;;;;10414686;28;20080;-60
2021/09/18 11:13:08;;;;;;;6.68;4.47;;;21.10;73.10;;;;;;10413996;28;20030;-61
2021/09/18 11:18:13;;;;;;;6.25;3.95;;;21.20;73.10;;;;;;10415187;28;20021;-61
2021/09/18 11:23:43;;;;;;;4.90;4.45;;;21.20;73.10;;;;;;10414140;28;20075;-62
2021/09/18 11:28:44;;;;;;;6.05;4.65;;;21.20;73.00;;;;;;10422873;28;20567;-61
2021/09/18 11:33:50;;;;;;;6.57;4.35;;;21.20;73.10;;;;;;10413352;28;20068;-61
2021/09/18 11:38:50;;;;;;;5.50;4.93;;;21.30;73.00;;;;;;10413174;28;20029;-61
2021/09/18 11:43:51;;;;;;;7.28;5.18;;;21.30;73.00;;;;;;10412516;28;20494;-61
2021/09/18 11:49:04;;;;;;;6.90;5.35;;;21.30;73.00;;;;;;10396309;28;20033;-60
2021/09/18 11:54:07;;;;;;;6.53;5.70;;;21.30;73.00;;;;;;10412620;28;20482;-61
2021/09/18 11:59:11;;;;;;;8.00;6.57;;;21.30;72.80;;;;;;10412690;28;20017;-60
2021/09/18 12:04:12;;;;;;;7.53;5.97;;;21.30;72.90;;;;;;10412923;28;20436;-60
2021/09/18 12:09:14;;;;;;;8.60;6.82;;;21.30;72.80;;;;;;10413468;28;20033;-60
2021/09/18 12:14:28;;;;;;;6.30;5.68;;;21.30;72.80;;;;;;10412357;28;20065;-60
2021/09/18 12:19:28;;;;;;;7.38;6.68;;;21.30;72.80;;;;;;10430058;28;20025;-61
2021/09/18 12:24:29;;;;;;;16.50;7.00;;;21.30;72.70;;;;;;10421103;28;20355;-61
2021/09/18 12:29:30;;;;;;;21.65;8.95;;;21.30;72.90;;;;;;10420148;28;20489;-61
2021/09/18 12:34:38;;;;;;;20.80;8.52;;;21.30;72.80;;;;;;10410816;28;20112;-59
2021/09/18 12:39:39;;;;;;;31.02;10.43;;;21.30;72.80;;;;;;10419834;28;20033;-60
2021/09/18 12:44:41;;;;;;;19.55;8.88;;;21.30;72.90;;;;;;10434791;28;20041;-59
2021/09/18 12:49:42;;;;;;;15.07;7.63;;;21.30;72.80;;;;;;10419741;28;20098;-58
2021/09/18 12:54:47;;;;;;;16.02;8.40;;;21.30;72.60;;;;;;10426449;28;20112;-58
2021/09/18 12:59:48;;;;;;;15.95;8.23;;;21.30;72.50;;;;;;10425532;28;20022;-59
2021/09/18 13:04:53;;;;;;;14.30;7.65;;;21.30;72.50;;;;;;10419020;28;20100;-59
2021/09/18 13:10:00;;;;;;;13.07;8.13;;;21.30;72.50;;;;;;10417582;28;20494;-59
2021/09/18 13:15:10;;;;;;;12.68;7.43;;;21.30;72.40;;;;;;10418484;28;20040;-59
2021/09/18 13:20:17;;;;;;;14.52;8.38;;;21.30;72.40;;;;;;10421084;28;20025;-59
2021/09/18 13:25:18;;;;;;;11.98;8.25;;;21.30;72.50;;;;;;10401160;28;20489;-59
2021/09/18 13:30:18;;;;;;;12.30;8.07;;;21.30;72.50;;;;;;10418293;28;20053;-59
2021/09/18 13:35:19;;;;;;;10.95;8.20;;;21.30;72.40;;;;;;10417521;28;20033;-58
2021/09/18 13:40:20;;;;;;;11.68;8.30;;;21.30;72.30;;;;;;10417527;28;20029;-59
2021/09/18 13:45:21;;;;;;;8.00;7.00;;;21.30;72.40;;;;;;10417158;28;20048;-59
2021/09/18 13:50:22;;;;;;;10.63;8.55;;;21.30;72.20;;;;;;10416673;28;20029;-59
2021/09/18 13:55:23;;;;;;;10.98;8.27;;;21.30;72.30;;;;;;10417446;28;20477;-59
2021/09/18 14:00:24;;;;;;;10.43;8.13;;;21.30;72.20;;;;;;10418250;28;20033;-60
2021/09/18 14:05:25;;;;;;;9.55;7.93;;;21.30;72.20;;;;;;10417954;28;20112;-59
2021/09/18 14:10:26;;;;;;;14.20;9.95;;;21.30;72.80;;;;;;10415938;28;20557;-59
2021/09/18 14:15:27;;;;;;;11.80;8.23;;;21.30;72.20;;;;;;10414953;28;20041;-60
2021/09/18 14:20:28;;;;;;;14.50;8.73;;;21.30;72.30;;;;;;10424021;28;20106;-59
2021/09/18 14:25:28;;;;;;;10.20;9.02;;;21.30;72.30;;;;;;10408098;28;20033;-60
2021/09/18 14:30:29;;;;;;;12.45;9.02;;;21.30;72.30;;;;;;10414627;28;20033;-59
2021/09/18 14:35:30;;;;;;;10.88;8.95;;;21.30;72.20;;;;;;10416489;28;20032;-59
2021/09/18 14:40:31;;;;;;;13.73;9.50;;;21.30;72.00;;;;;;10414490;28;20036;-60
2021/09/18 14:45:32;;;;;;;12.77;9.82;;;21.30;72.10;;;;;;10414985;28;20041;-58
2021/09/18 14:50:32;;;;;;;12.18;8.95;;;21.40;72.10;;;;;;10416282;28;20033;-58
2021/09/18 14:55:33;;;;;;;13.35;9.38;;;21.30;72.00;;;;;;10415775;28;20051;-59
2021/09/18 15:00:34;;;;;;;16.33;9.05;;;21.30;72.00;;;;;;10414773;28;20453;-58
2021/09/18 15:05:34;;;;;;;10.55;7.93;;;21.30;71.90;;;;;;10415400;28;20112;-61
2021/09/18 15:10:35;;;;;;;14.23;9.30;;;21.30;71.70;;;;;;10415267;28;20044;-59
2021/09/18 15:15:36;;;;;;;22.45;9.40;;;21.30;70.90;;;;;;10427527;28;20113;-59
2021/09/18 15:20:36;;;;;;;21.70;9.70;;;21.40;71.10;;;;;;10427298;28;20017;-60
2021/09/18 15:25:38;;;;;;;17.80;9.05;;;21.30;70.40;;;;;;10413532;28;20052;-60
2021/09/18 15:30:39;;;;;;;17.65;11.00;;;21.40;70.90;;;;;;10413725;28;20133;-58
2021/09/18 15:35:40;;;;;;;23.27;10.90;;;21.50;73.80;;;;;;10414571;28;20044;-59
2021/09/18 15:40:43;;;;;;;18.05;10.10;;;21.50;73.70;;;;;;10414080;28;20057;-59
2021/09/18 15:45:44;;;;;;;22.10;11.82;;;21.60;74.10;;;;;;10396533;28;20057;-58
2021/09/18 15:50:45;;;;;;;18.65;10.60;;;21.60;73.90;;;;;;10412076;28;20092;-59
2021/09/18 15:55:46;;;;;;;18.58;12.00;;;21.60;74.20;;;;;;10412613;28;20581;-59
2021/09/18 16:00:46;;;;;;;23.77;11.40;;;21.50;73.90;;;;;;10413925;28;20096;-59
2021/09/18 16:05:48;;;;;;;22.45;10.40;;;21.50;72.70;;;;;;10411807;28;20430;-58
2021/09/18 16:10:49;;;;;;;21.48;11.40;;;21.50;73.50;;;;;;10413537;28;20065;-58
2021/09/18 16:15:50;;;;;;;19.77;10.05;;;21.60;73.60;;;;;;10413466;28;20120;-58
2021/09/18 16:20:51;;;;;;;23.83;11.60;;;21.50;72.80;;;;;;10416830;28;20025;-58
2021/09/18 16:25:51;;;;;;;27.92;12.52;;;21.50;73.20;;;;;;10413367;28;20053;-58
2021/09/18 16:30:52;;;;;;;30.20;12.63;;;21.50;73.40;;;;;;10395909;28;20036;-58
2021/09/18 16:35:53;;;;;;;31.75;11.02;;;21.40;73.50;;;;;;10411049;28;20113;-59
2021/09/18 16:40:54;;;;;;;38.38;12.23;;;21.50;73.50;;;;;;10412836;28;20036;-59
2021/09/18 16:45:55;;;;;;;21.85;10.10;;;21.40;73.30;;;;;;10411774;28;20068;-59
2021/09/18 16:50:57;;;;;;;21.65;9.73;;;21.40;73.00;;;;;;10412013;28;20515;-60
2021/09/18 16:55:58;;;;;;;23.63;10.27;;;21.40;72.70;;;;;;10425190;28;20041;-59
2021/09/18 17:00:59;;;;;;;20.10;11.07;;;21.40;72.60;;;;;;10390355;28;20037;-59
2021/09/18 17:06:00;;;;;;;20.35;9.93;;;21.40;72.50;;;;;;10416760;28;20084;-59
2021/09/18 17:11:00;;;;;;;18.48;10.30;;;21.40;72.50;;;;;;10418567;28;20051;-59
2021/09/18 17:16:01;;;;;;;15.30;9.52;;;21.40;72.40;;;;;;10419607;28;20492;-59
2021/09/18 17:21:02;;;;;;;17.02;10.45;;;21.40;72.40;;;;;;10419489;28;20482;-59
2021/09/18 17:26:03;;;;;;;22.38;10.30;;;21.40;72.40;;;;;;10417597;28;20022;-59
2021/09/18 17:31:04;;;;;;;19.48;9.75;;;21.30;72.50;;;;;;10418304;28;20557;-59
2021/09/18 17:36:05;;;;;;;14.18;10.63;;;21.30;72.50;;;;;;10386008;28;20533;-59
2021/09/18 17:41:05;;;;;;;19.13;10.43;;;21.30;72.60;;;;;;10424816;28;20063;-59
2021/09/18 17:46:06;;;;;;;15.45;9.32;;;21.30;72.70;;;;;;10412969;28;20124;-59
2021/09/18 17:51:08;;;;;;;18.70;9.15;;;21.30;72.60;;;;;;10426608;28;20029;-59
2021/09/18 17:56:10;;;;;;;13.05;9.23;;;21.30;72.50;;;;;;10416092;28;20398;-59
2021/09/18 18:01:11;;;;;;;12.73;9.57;;;21.30;72.40;;;;;;10418361;28;20026;-59
2021/09/18 18:06:12;;;;;;;11.30;8.57;;;21.30;73.00;;;;;;10409442;28;20044;-61
2021/09/18 18:11:13;;;;;;;11.10;7.93;;;21.30;72.80;;;;;;10419601;28;20041;-60
2021/09/18 18:16:14;;;;;;;11.73;8.63;;;21.30;72.30;;;;;;10405003;28;20052;-61
2021/09/18 18:21:15;;;;;;;11.73;8.68;;;21.30;72.20;;;;;;10419831;28;20523;-60
2021/09/18 18:26:15;;;;;;;13.43;8.40;;;21.30;72.20;;;;;;10398382;28;20049;-60
2021/09/18 18:31:16;;;;;;;12.45;8.13;;;21.30;72.20;;;;;;10409542;28;20386;-60
2021/09/18 18:36:17;;;;;;;9.27;7.70;;;21.30;72.30;;;;;;10406730;28;20041;-59
2021/09/18 18:41:18;;;;;;;11.38;8.05;;;21.20;72.20;;;;;;10422812;28;20029;-60
2021/09/18 18:46:20;;;;;;;10.63;7.45;;;21.20;72.30;;;;;;10407875;28;20060;-60
2021/09/18 18:51:21;;;;;;;15.07;7.68;;;21.20;72.30;;;;;;10408107;28;20034;-59
2021/09/18 18:56:22;;;;;;;10.55;8.23;;;21.20;72.20;;;;;;10408520;28;20386;-60
2021/09/18 19:01:23;;;;;;;11.30;7.20;;;21.20;72.20;;;;;;10406712;28;20038;-59
2021/09/18 19:06:24;;;;;;;11.52;7.55;;;21.20;72.10;;;;;;10407256;28;20065;-60
2021/09/18 19:11:25;;;;;;;10.30;6.88;;;21.20;72.20;;;;;;10424205;28;20179;-60
2021/09/18 19:16:26;;;;;;;9.35;7.88;;;21.20;72.30;;;;;;10407468;28;20453;-60
2021/09/18 19:21:27;;;;;;;9.32;7.72;;;21.20;72.30;;;;;;10407309;28;20033;-60
2021/09/18 19:26:28;;;;;;;8.88;7.72;;;21.20;72.20;;;;;;10406651;28;20184;-60
2021/09/18 19:31:28;;;;;;;9.65;7.18;;;21.20;72.20;;;;;;10390217;28;20059;-59
2021/09/18 19:36:29;;;;;;;7.75;6.95;;;21.10;72.20;;;;;;10406547;28;20037;-60
2021/09/18 19:41:30;;;;;;;9.27;6.85;;;21.10;72.20;;;;;;10406242;28;20390;-60
2021/09/18 19:46:31;;;;;;;7.72;6.63;;;21.10;72.20;;;;;;10405958;28;20049;-59
2021/09/18 19:51:32;;;;;;;8.15;6.90;;;21.10;72.20;;;;;;10407778;28;20029;-60
2021/09/18 19:56:36;;;;;;;8.10;7.15;;;21.10;72.20;;;;;;10405744;28;20128;-60
2021/09/18 20:01:36;;;;;;;9.68;6.93;;;21.10;72.20;;;;;;10393839;28;20034;-59
2021/09/18 20:06:37;;;;;;;11.52;10.45;;;21.10;72.20;;;;;;10404341;28;20030;-59
2021/09/18 20:11:38;;;;;;;10.90;8.63;;;21.10;73.90;;;;;;10393276;28;20566;-60
2021/09/18 20:16:39;;;;;;;8.73;7.78;;;21.10;73.80;;;;;;10405193;28;20057;-60
2021/09/18 20:21:40;;;;;;;8.38;7.50;;;21.10;73.30;;;;;;10417923;28;20469;-60
2021/09/18 20:26:41;;;;;;;8.27;7.47;;;21.10;73.10;;;;;;10413266;28;20037;-60
2021/09/18 20:31:41;;;;;;;9.13;7.20;;;21.10;73.00;;;;;;10412332;28;20069;-60
2021/09/18 20:36:42;;;;;;;7.88;6.45;;;21.10;73.00;;;;;;10413805;28;20031;-59
2021/09/18 20:41:43;;;;;;;8.82;7.93;;;21.10;72.90;;;;;;10421676;28;20025;-59
2021/09/18 20:46:43;;;;;;;8.88;7.72;;;21.10;72.80;;;;;;10421275;28;20077;-60
2021/09/18 20:51:44;;;;;;;8.52;7.65;;;21.10;73.00;;;;;;10419720;28;20101;-60
2021/09/18 20:56:45;;;;;;;8.02;7.05;;;21.10;73.20;;;;;;10419430;28;20079;-59
2021/09/18 21:06:54;;;;;;;6.53;5.82;;;21.10;73.00;;;;;;10419241;28;20470;-59
2021/09/18 21:11:56;;;;;;;7.22;6.50;;;21.00;72.50;;;;;;10420352;28;20453;-60
2021/09/18 21:16:57;;;;;;;6.35;5.75;;;21.00;72.10;;;;;;10418899;28;20103;-60
2021/09/18 21:21:57;;;;;;;8.95;7.72;;;21.00;72.10;;;;;;10408359;28;20029;-60
2021/09/18 21:26:58;;;;;;;6.90;6.20;;;21.00;72.10;;;;;;10417995;28;20064;-60
2021/09/18 21:31:59;;;;;;;7.32;6.35;;;21.00;72.20;;;;;;10419358;28;20084;-59
2021/09/18 21:37:00;;;;;;;7.90;6.65;;;21.00;72.00;;;;;;10431460;28;20125;-59
2021/09/18 21:42:00;;;;;;;7.53;6.78;;;21.00;72.00;;;;;;10418071;28;20402;-59
2021/09/18 21:47:01;;;;;;;9.30;6.38;;;21.00;71.90;;;;;;10418225;28;20037;-59
2021/09/18 21:52:02;;;;;;;7.10;6.40;;;20.90;71.90;;;;;;10416795;28;20033;-59
2021/09/18 21:57:03;;;;;;;6.40;5.80;;;20.90;72.00;;;;;;10417742;28;20075;-59
2021/09/18 22:02:04;;;;;;;8.00;6.25;;;20.90;72.10;;;;;;10418490;28;20029;-60
2021/09/18 22:07:04;;;;;;;6.88;5.43;;;20.90;72.30;;;;;;10416981;28;20116;-59
2021/09/18 22:12:06;;;;;;;5.82;5.32;;;20.90;72.30;;;;;;10417232;28;20479;-59
2021/09/18 22:17:07;;;;;;;9.52;5.90;;;20.90;72.10;;;;;;10417564;28;20033;-59
2021/09/18 22:22:07;;;;;;;6.05;5.45;;;20.90;72.00;;;;;;10407270;28;20033;-59
2021/09/18 22:27:08;;;;;;;5.75;5.25;;;20.90;72.00;;;;;;10416347;28;20029;-59
2021/09/18 22:32:09;;;;;;;6.85;6.20;;;20.90;72.10;;;;;;10417493;28;20022;-59
2021/09/18 22:37:09;;;;;;;7.47;6.57;;;20.90;72.10;;;;;;10415737;28;20044;-59
2021/09/18 22:42:10;;;;;;;6.75;5.40;;;20.90;72.20;;;;;;10416605;28;20068;-60
2021/09/18 22:47:11;;;;;;;6.38;5.65;;;20.90;72.30;;;;;;10416747;28;20132;-59
2021/09/18 22:52:12;;;;;;;5.72;5.13;;;20.90;72.30;;;;;;10416494;28;20490;-60
2021/09/18 22:57:12;;;;;;;7.20;5.28;;;20.90;72.10;;;;;;10416237;28;20061;-59
2021/09/18 23:02:15;;;;;;;6.55;5.65;;;20.90;72.20;;;;;;10415227;28;20037;-59
2021/09/18 23:07:16;;;;;;;5.82;5.32;;;20.80;72.10;;;;;;10415866;28;20697;-59
2021/09/18 23:12:17;;;;;;;5.65;4.88;;;20.80;72.00;;;;;;10415694;28;20059;-59
2021/09/18 23:17:18;;;;;;;6.35;5.63;;;20.80;71.90;;;;;;10414198;28;20034;-59
2021/09/18 23:22:19;;;;;;;6.25;5.65;;;20.80;72.00;;;;;;10426939;28;20095;-59
2021/09/18 23:27:20;;;;;;;6.50;5.28;;;20.80;72.00;;;;;;10415231;28;20030;-59
2021/09/18 23:32:21;;;;;;;5.65;4.88;;;20.80;72.10;;;;;;10413746;28;20080;-59
2021/09/18 23:37:21;;;;;;;5.85;5.05;;;20.80;72.20;;;;;;10413484;28;20034;-59
2021/09/18 23:42:22;;;;;;;5.32;4.82;;;20.80;72.10;;;;;;10413582;28;20068;-59
2021/09/18 23:47:23;;;;;;;5.90;4.80;;;20.80;72.10;;;;;;10414429;28;20045;-59
2021/09/18 23:52:24;;;;;;;4.97;4.47;;;20.80;72.10;;;;;;10414304;28;20068;-59
2021/09/18 23:57:24;;;;;;;5.18;4.70;;;20.80;72.00;;;;;;10413179;28;20033;-59
